Tropical Cyclones
[Index]
Main Index Home Page Stock Weather Photos Extreme Storms Discussion Storm News and Storm Chasing Reports Tropical Cyclones / Hurricanes / Typhoons Weather Data and Links Wild Fires / Bushfires Weather Observation Techniques Weather Picture Catalogue Tornado Pictures and Reports Stock Video Footage and DVDs for sale
Season 1980-1981 Tropical Cyclone DAN Track Map
Season 1980-1981 Summaries: [BoM-AU] [JTWC-AU] [JTWC-SIO] [JTWC-SPAC] [JTWC-SH]
<<- Previous TC | BoM 1980-1981 Season | Next TC ->>

click for intensity scale information  Lat/long Grid: Show Hide

 Date Labels: Show Hide

Bureau of Meteorology Tropical Cyclone Data

Name: DAN
Number: 611 / 198081_04

14 Dec 1980 00:00 UTC to 18 Dec 1980 00:00 UTC

    date/time    lat    long    hPa   cat  kts
1980-12-14 00    8.6    99.6   1006                     
1980-12-14 06    8.5   100.3   1006                     
1980-12-14 12    8.4   101.1   1005                     
1980-12-14 18    8.5   101.9   1005                     
1980-12-15 00    8.8   102.4   1004                     
1980-12-15 03    9.0   102.5   1003                     
1980-12-15 06    9.7   102.1   1002                     
1980-12-15 09   10.1   101.6   1001                     
1980-12-15 12   10.5   101.4   1000                     
1980-12-15 15   10.6   101.6    998                     
1980-12-15 18   10.6   101.9    996                     
1980-12-16 00   10.3   102.3    992    1                
1980-12-16 06    9.9   103.0    989    1                
1980-12-16 12    9.7   103.7    986    1                
1980-12-16 15    9.8   104.0    985    2                
1980-12-16 18   10.1   104.2    985    2                
1980-12-17 00   10.9   104.5    986    1                
1980-12-17 06   11.8   104.7    988    1                
1980-12-17 12   12.3   104.9    990    1                
1980-12-17 18   13.0   105.1    992    1                
1980-12-18 00   13.6   105.4    994    1                
Winds are 10-min average.

Tropical cyclone tracks developed by Michael Bath using data from the Bureau of Meteorology and Google Maps.


[Australian Severe Weather index] [Copyright Notice] [Email Contacts] [Search This Site] [Privacy Policy]
Document: tropical_cyclone_dan.htm Updated: 30 May 2013